createdAt,value
2023-02-24T00:00:18.025Z,26.10
2023-02-24T00:01:18.340Z,26.12
2023-02-24T00:02:18.105Z,26.12
2023-02-24T00:03:17.998Z,26.09
2023-02-24T00:54:49.056Z,26.09
2023-02-24T00:55:49.927Z,26.07
2023-02-24T00:56:49.911Z,26.09
2023-02-24T00:57:49.901Z,26.10
2023-02-24T00:58:50.003Z,26.09
2023-02-24T00:59:49.889Z,26.15
2023-02-24T01:00:49.880Z,26.09
2023-02-24T01:01:49.953Z,26.12
2023-02-24T01:02:49.857Z,26.09
2023-02-24T01:03:49.901Z,26.07
2023-02-24T01:04:49.840Z,26.10
2023-02-24T01:05:49.822Z,26.10
2023-02-24T01:06:49.819Z,26.10
2023-02-24T01:07:49.834Z,26.09
2023-02-24T01:08:50.475Z,26.10
2023-02-24T01:09:49.796Z,26.09
2023-02-24T01:10:49.889Z,26.09
2023-02-24T01:11:49.807Z,26.06
2023-02-24T01:12:50.041Z,26.09
2023-02-24T01:13:49.748Z,26.09
2023-02-24T01:14:49.750Z,26.09
2023-02-24T01:15:49.743Z,26.09
2023-02-24T01:16:49.739Z,26.06
2023-02-24T01:17:49.752Z,26.07
2023-02-24T01:18:49.702Z,26.07
2023-02-24T01:19:49.899Z,26.06
2023-02-24T01:20:49.686Z,26.04
2023-02-24T01:21:49.681Z,26.07
2023-02-24T01:22:49.684Z,26.06
2023-02-24T01:23:49.670Z,26.06
2023-02-24T01:24:49.708Z,26.06
2023-02-24T01:25:49.645Z,26.06
2023-02-24T01:26:49.670Z,26.07
2023-02-24T01:27:49.645Z,26.04
2023-02-24T01:28:49.618Z,26.04
2023-02-24T01:29:49.660Z,26.06
2023-02-24T01:30:49.608Z,26.03
2023-02-24T01:31:50.029Z,26.04
2023-02-24T01:32:49.823Z,26.06
2023-02-24T01:33:49.581Z,26.04
2023-02-24T01:34:49.567Z,26.07
2023-02-24T01:35:49.558Z,26.06
2023-02-24T01:36:49.553Z,26.06
2023-02-24T01:37:49.542Z,26.07
2023-02-24T01:38:49.536Z,26.06
2023-02-24T01:39:49.547Z,26.09
2023-02-24T01:40:49.530Z,26.06
2023-02-24T01:41:49.518Z,26.06
2023-02-24T01:42:49.623Z,26.04
2023-02-24T01:43:49.499Z,26.04
2023-02-24T01:44:49.491Z,26.04
2023-02-24T01:45:49.480Z,26.06
2023-02-24T01:46:49.552Z,26.04
2023-02-24T01:47:49.465Z,26.04
2023-02-24T01:48:49.451Z,26.03
2023-02-24T01:49:49.446Z,26.04
2023-02-24T01:50:49.436Z,26.02
2023-02-24T01:51:49.426Z,26.04
2023-02-24T01:52:49.421Z,26.04
2023-02-24T01:53:49.410Z,26.06
2023-02-24T01:54:49.403Z,26.04
2023-02-24T01:55:49.397Z,26.02
2023-02-24T01:56:49.396Z,26.02
2023-02-24T01:57:49.397Z,26.03
2023-02-24T01:58:49.398Z,26.02
2023-02-24T01:59:49.369Z,26.03
2023-02-24T02:00:50.004Z,26.03
2023-02-24T02:01:49.553Z,26.04
2023-02-24T02:02:49.416Z,26.06
2023-02-24T02:03:49.325Z,26.06
2023-02-24T02:04:49.320Z,26.03
2023-02-24T02:05:49.307Z,26.06
2023-02-24T02:06:49.309Z,26.06
2023-02-24T02:07:49.297Z,26.04
2023-02-24T02:08:49.297Z,26.06
2023-02-24T02:09:49.277Z,26.04
2023-02-24T02:10:49.271Z,26.06
2023-02-24T02:11:49.295Z,26.06
2023-02-24T02:12:49.258Z,26.04
2023-02-24T02:13:49.305Z,26.02
2023-02-24T02:14:49.259Z,26.03
2023-02-24T02:15:49.240Z,26.03
2023-02-24T02:16:49.221Z,26.04
2023-02-24T02:17:49.276Z,26.03
2023-02-24T02:18:49.206Z,26.03
2023-02-24T02:19:49.206Z,26.02
2023-02-24T02:20:50.015Z,26.04
2023-02-24T02:21:49.170Z,26.02
2023-02-24T02:22:49.163Z,26.04
2023-02-24T02:23:52.013Z,26.04
2023-02-24T02:24:49.149Z,26.02
2023-02-24T02:25:49.134Z,26.03
2023-02-24T02:26:49.174Z,26.03
2023-02-24T02:27:49.120Z,26.03
2023-02-24T02:28:49.117Z,26.03
2023-02-24T02:29:49.114Z,26.04
2023-02-24T02:30:49.169Z,26.02
2023-02-24T02:31:49.186Z,26.04
2023-02-24T02:32:49.248Z,26.02
2023-02-24T02:33:49.070Z,26.03
2023-02-24T02:34:49.066Z,26.03
2023-02-24T02:35:50.020Z,26.03
2023-02-24T02:36:49.201Z,26.03
2023-02-24T02:37:49.212Z,26.04
2023-02-24T02:38:49.197Z,26.04
2023-02-24T02:39:49.181Z,26.03
2023-02-24T02:40:49.169Z,26.03
2023-02-24T02:41:49.157Z,26.03
2023-02-24T02:42:49.149Z,26.03
2023-02-24T02:43:49.140Z,26.04
2023-02-24T02:44:49.131Z,26.03
2023-02-24T02:45:49.180Z,26.03
2023-02-24T02:46:50.049Z,26.02
2023-02-24T02:47:49.101Z,26.02
2023-02-24T02:48:49.097Z,26.02
2023-02-24T02:49:49.089Z,26.03
2023-02-24T02:50:49.083Z,26.03
2023-02-24T02:51:49.527Z,26.03
2023-02-24T02:52:49.059Z,26.03
2023-02-24T02:53:49.054Z,26.02
2023-02-24T02:54:49.033Z,26.03
2023-02-24T02:55:49.035Z,26.03
2023-02-24T02:56:49.525Z,26.03
2023-02-24T02:57:49.023Z,26.02
2023-02-24T02:58:49.005Z,26.02
2023-02-24T02:59:48.994Z,26.04
2023-02-24T03:00:48.991Z,26.03
2023-02-24T03:01:48.985Z,26.02
2023-02-24T03:02:48.999Z,26.03
2023-02-24T03:03:48.966Z,26.02
2023-02-24T03:04:48.986Z,26.03
2023-02-24T03:05:49.035Z,26.06
2023-02-24T03:06:48.943Z,26.02
2023-02-24T03:07:48.930Z,26.03
2023-02-24T03:08:48.918Z,26.02
2023-02-24T03:09:48.906Z,26.02
2023-02-24T03:10:48.912Z,26.00
2023-02-24T03:11:48.888Z,26.00
2023-02-24T03:12:48.894Z,26.00
2023-02-24T03:13:49.539Z,26.02
2023-02-24T03:14:48.864Z,26.02
2023-02-24T03:15:49.055Z,26.00
2023-02-24T03:16:48.918Z,26.02
2023-02-24T03:17:49.530Z,26.02
2023-02-24T03:18:48.864Z,26.03
2023-02-24T03:19:48.823Z,26.00
2023-02-24T03:20:51.533Z,26.00
2023-02-24T03:21:48.806Z,26.02
2023-02-24T03:22:48.799Z,26.00
2023-02-24T03:23:48.797Z,25.99
2023-02-24T03:24:48.800Z,26.00
2023-02-24T03:25:48.778Z,26.00
2023-02-24T03:26:48.766Z,25.97
2023-02-24T03:27:48.774Z,26.00
2023-02-24T03:28:48.749Z,26.03
2023-02-24T03:29:48.746Z,25.97
2023-02-24T03:30:48.778Z,25.97
2023-02-24T03:31:48.866Z,26.00
2023-02-24T03:32:48.803Z,26.02
2023-02-24T03:33:48.699Z,25.99
2023-02-24T03:34:48.732Z,25.99
2023-02-24T03:35:48.713Z,25.97
2023-02-24T03:36:48.679Z,26.00
2023-02-24T03:37:48.672Z,26.02
2023-02-24T03:38:48.661Z,26.00
2023-02-24T03:39:48.652Z,26.00
2023-02-24T03:40:48.644Z,26.00
2023-02-24T03:41:48.636Z,26.02
2023-02-24T03:42:48.641Z,25.97
2023-02-24T03:43:48.625Z,25.99
2023-02-24T03:44:48.611Z,25.99
2023-02-24T03:45:49.651Z,26.00
2023-02-24T03:46:48.597Z,26.00
2023-02-24T03:47:48.582Z,25.99
2023-02-24T03:48:48.587Z,25.99
2023-02-24T03:49:48.606Z,25.97
2023-02-24T03:50:49.078Z,25.99
2023-02-24T03:51:51.548Z,25.99
2023-02-24T03:52:48.542Z,26.00
2023-02-24T03:53:48.528Z,25.97
2023-02-24T03:54:48.572Z,25.99
2023-02-24T03:55:48.532Z,26.00
2023-02-24T03:56:48.514Z,25.97
2023-02-24T03:57:48.493Z,26.02
2023-02-24T03:58:48.489Z,25.99
2023-02-24T03:59:48.491Z,26.02
2023-02-24T04:00:48.474Z,26.02
2023-02-24T04:01:48.460Z,25.99
2023-02-24T04:02:48.495Z,25.99
2023-02-24T04:03:48.441Z,26.00
2023-02-24T04:04:48.538Z,25.99
2023-02-24T04:05:48.429Z,25.97
2023-02-24T04:06:48.440Z,25.97
2023-02-24T04:07:48.410Z,26.00
2023-02-24T04:08:48.396Z,25.97
2023-02-24T04:09:48.385Z,26.00
2023-02-24T04:10:48.377Z,26.00
2023-02-24T04:11:48.366Z,26.00
2023-02-24T04:12:48.402Z,26.00
2023-02-24T04:13:48.370Z,25.99
2023-02-24T04:14:49.075Z,25.99
2023-02-24T04:15:48.349Z,25.99
2023-02-24T04:16:48.327Z,25.99
2023-02-24T04:17:48.317Z,25.97
2023-02-24T04:18:48.312Z,26.00
2023-02-24T04:19:49.059Z,26.00
2023-02-24T04:20:48.316Z,26.00
2023-02-24T04:21:48.291Z,25.99
2023-02-24T04:22:48.294Z,25.99
2023-02-24T04:23:48.262Z,25.99
2023-02-24T04:24:48.262Z,25.99
2023-02-24T04:25:48.246Z,25.99
2023-02-24T04:26:48.238Z,26.00
2023-02-24T04:27:48.229Z,26.00
2023-02-24T04:28:48.225Z,26.00
2023-02-24T04:29:48.217Z,26.02
2023-02-24T04:30:48.349Z,25.99
2023-02-24T04:31:48.355Z,25.99
2023-02-24T04:32:48.266Z,25.99
2023-02-24T04:33:48.177Z,25.97
2023-02-24T04:34:48.173Z,25.99
2023-02-24T04:35:48.173Z,25.97
2023-02-24T04:36:48.600Z,25.99
2023-02-24T04:37:48.142Z,25.97
2023-02-24T04:38:48.181Z,25.99
2023-02-24T04:39:48.119Z,25.99
2023-02-24T04:40:48.118Z,25.96
2023-02-24T04:41:48.104Z,25.99
2023-02-24T04:42:48.099Z,25.95
2023-02-24T04:43:49.080Z,25.97
2023-02-24T04:44:48.077Z,25.96
2023-02-24T04:45:48.071Z,25.99
2023-02-24T04:46:48.608Z,25.99
2023-02-24T04:47:48.051Z,25.97
2023-02-24T04:48:48.049Z,25.97
2023-02-24T04:49:48.572Z,25.97
2023-02-24T04:50:48.080Z,25.97
2023-02-24T04:51:48.014Z,25.97
2023-02-24T04:52:48.031Z,25.99
2023-02-24T04:53:47.999Z,25.96
2023-02-24T04:54:48.008Z,25.97
2023-02-24T04:55:47.980Z,25.99
2023-02-24T04:56:47.980Z,25.97
2023-02-24T04:57:48.091Z,25.95
2023-02-24T04:58:48.584Z,25.97
2023-02-24T04:59:47.942Z,25.95
2023-02-24T05:00:47.929Z,25.93
2023-02-24T05:01:47.924Z,25.97
2023-02-24T05:02:47.924Z,25.97
2023-02-24T05:03:48.006Z,25.96
2023-02-24T05:04:48.023Z,25.95
2023-02-24T05:05:47.890Z,25.96
2023-02-24T05:06:47.884Z,25.96
2023-02-24T05:07:47.871Z,25.96
2023-02-24T05:08:47.868Z,25.95
2023-02-24T05:09:47.855Z,25.96
2023-02-24T05:10:47.872Z,25.97
2023-02-24T05:11:47.840Z,25.96
2023-02-24T05:12:47.842Z,25.96
2023-02-24T05:13:47.824Z,25.96
2023-02-24T05:14:47.808Z,25.96
2023-02-24T05:15:50.662Z,25.95
2023-02-24T05:16:47.818Z,25.99
2023-02-24T05:17:47.788Z,25.95
2023-02-24T05:18:47.785Z,25.97
2023-02-24T05:19:47.777Z,25.96
2023-02-24T05:20:47.765Z,25.97
2023-02-24T05:21:47.753Z,25.95
2023-02-24T05:22:47.747Z,25.97
2023-02-24T05:23:47.740Z,25.97
2023-02-24T05:24:47.731Z,25.95
2023-02-24T05:25:47.722Z,25.95
2023-02-24T05:27:47.705Z,25.96
2023-02-24T05:28:47.693Z,25.95
2023-02-24T05:29:47.682Z,25.93
2023-02-24T05:30:47.733Z,25.95
2023-02-24T05:31:48.756Z,25.95
2023-02-24T05:32:47.804Z,25.96
2023-02-24T05:33:47.654Z,25.95
2023-02-24T05:34:48.608Z,25.96
2023-02-24T05:35:47.629Z,25.96
2023-02-24T05:36:47.625Z,25.95
2023-02-24T05:37:47.615Z,25.92
2023-02-24T05:38:47.605Z,25.95
2023-02-24T05:39:47.597Z,25.93
2023-02-24T05:40:47.623Z,25.96
2023-02-24T05:41:47.589Z,25.95
2023-02-24T05:42:47.593Z,25.97
2023-02-24T05:43:47.561Z,25.97
2023-02-24T05:44:47.557Z,25.99
2023-02-24T05:45:47.549Z,26.00
2023-02-24T05:46:47.599Z,25.97
2023-02-24T05:47:47.561Z,25.97
2023-02-24T05:48:47.520Z,25.99
2023-02-24T05:49:48.152Z,25.97
2023-02-24T05:50:47.501Z,25.97
2023-02-24T05:51:47.494Z,25.99
2023-02-24T05:52:47.485Z,26.00
2023-02-24T05:53:47.643Z,25.99
2023-02-24T05:54:47.468Z,26.00
2023-02-24T05:55:47.457Z,25.99
2023-02-24T05:56:47.449Z,25.99
2023-02-24T05:57:47.435Z,25.97
2023-02-24T05:58:47.464Z,25.97
2023-02-24T05:59:47.422Z,26.00
2023-02-24T06:00:47.420Z,25.96
2023-02-24T06:01:47.463Z,25.99
2023-02-24T06:02:47.441Z,26.00
2023-02-24T06:03:47.404Z,25.99
2023-02-24T06:04:47.380Z,25.97
2023-02-24T06:05:47.371Z,25.99
2023-02-24T06:06:47.360Z,25.97
2023-02-24T06:07:47.359Z,25.97
2023-02-24T06:08:47.347Z,25.96
2023-02-24T06:09:47.342Z,25.96
2023-02-24T06:10:47.332Z,25.96
2023-02-24T06:11:48.139Z,25.96
2023-02-24T06:12:47.616Z,25.96
2023-02-24T06:13:47.320Z,25.96
2023-02-24T06:14:47.355Z,25.96
2023-02-24T06:15:47.289Z,25.95
2023-02-24T06:16:47.323Z,25.96
2023-02-24T06:17:50.113Z,25.95
2023-02-24T06:18:47.288Z,25.93
2023-02-24T06:19:47.622Z,25.95
2023-02-24T06:20:47.251Z,25.96
2023-02-24T06:21:47.228Z,25.93
2023-02-24T06:22:47.228Z,25.96
2023-02-24T06:23:47.641Z,25.96
2023-02-24T06:24:47.211Z,25.95
2023-02-24T06:25:47.215Z,25.96
2023-02-24T06:26:47.206Z,25.95
2023-02-24T06:27:47.184Z,25.96
2023-02-24T06:28:47.171Z,25.97
2023-02-24T06:29:47.622Z,25.96
2023-02-24T06:30:47.309Z,25.96
2023-02-24T06:31:48.206Z,25.97
2023-02-24T06:32:47.303Z,25.99
2023-02-24T06:33:47.135Z,25.99
2023-02-24T06:34:47.634Z,26.00
2023-02-24T06:35:47.124Z,26.02
2023-02-24T06:36:47.150Z,26.00
2023-02-24T06:37:47.115Z,26.02
2023-02-24T06:38:47.092Z,26.03
2023-02-24T06:39:47.098Z,26.03
2023-02-24T06:40:47.111Z,26.04
2023-02-24T06:41:48.098Z,26.06
2023-02-24T06:42:47.308Z,26.07
2023-02-24T06:43:47.051Z,26.09
2023-02-24T06:44:47.080Z,26.07
2023-02-24T06:45:47.194Z,26.07
2023-02-24T06:46:47.737Z,26.09
2023-02-24T06:47:47.166Z,26.07
2023-02-24T06:48:47.052Z,26.12
2023-02-24T06:49:47.044Z,26.09
2023-02-24T06:50:50.207Z,26.10
2023-02-24T06:51:46.981Z,26.12
2023-02-24T06:52:47.528Z,26.16
2023-02-24T06:53:46.980Z,26.15
2023-02-24T06:54:47.140Z,26.13
2023-02-24T06:55:50.370Z,26.13
2023-02-24T06:56:46.949Z,26.15
2023-02-24T06:57:46.938Z,26.12
2023-02-24T06:58:46.950Z,26.15
2023-02-24T06:59:47.296Z,26.13
2023-02-24T07:00:47.201Z,26.12
2023-02-24T07:01:46.915Z,26.10
2023-02-24T07:02:46.931Z,26.13
2023-02-24T07:03:46.942Z,26.10
2023-02-24T07:04:47.190Z,26.12
2023-02-24T07:05:47.146Z,26.13
2023-02-24T07:06:46.872Z,26.12
2023-02-24T07:07:46.882Z,26.12
2023-02-24T07:08:46.897Z,26.12
2023-02-24T07:09:47.671Z,26.09
2023-02-24T07:10:47.176Z,26.12
2023-02-24T07:11:46.988Z,26.12
2023-02-24T07:12:46.813Z,26.12
2023-02-24T07:13:46.806Z,26.10
2023-02-24T07:14:47.734Z,26.09
2023-02-24T07:15:46.804Z,26.10
2023-02-24T07:16:47.829Z,26.10
2023-02-24T07:17:48.309Z,26.09
2023-02-24T07:18:46.795Z,26.12
2023-02-24T07:19:47.761Z,26.07
2023-02-24T07:20:46.754Z,26.10
2023-02-24T07:21:46.748Z,26.09
2023-02-24T07:22:47.691Z,26.12
2023-02-24T07:23:46.720Z,26.07
2023-02-24T07:24:46.785Z,26.07
2023-02-24T07:25:47.338Z,26.09
2023-02-24T07:26:47.252Z,26.04
2023-02-24T07:27:46.680Z,26.07
2023-02-24T07:28:46.643Z,26.07
2023-02-24T07:29:46.708Z,26.07
2023-02-24T07:30:46.988Z,26.07
2023-02-24T07:31:47.655Z,26.09
2023-02-24T07:32:47.069Z,26.07
2023-02-24T07:33:46.647Z,26.04
2023-02-24T07:34:50.236Z,26.04
2023-02-24T07:35:46.672Z,26.04
2023-02-24T07:36:46.590Z,26.06
2023-02-24T07:37:46.571Z,26.06
2023-02-24T07:38:47.180Z,26.06
2023-02-24T07:39:47.194Z,26.06
2023-02-24T07:40:46.559Z,26.06
2023-02-24T07:41:46.703Z,26.09
2023-02-24T07:42:46.555Z,26.06
2023-02-24T07:43:46.534Z,26.03
2023-02-24T07:44:46.950Z,26.04
2023-02-24T07:45:46.594Z,26.04
2023-02-24T07:46:47.197Z,26.03
2023-02-24T07:47:46.678Z,26.04
2023-02-24T07:48:47.545Z,26.04
2023-02-24T07:49:46.498Z,26.03
2023-02-24T07:50:46.503Z,26.04
2023-02-24T07:51:46.467Z,26.03
2023-02-24T07:52:46.464Z,26.02
2023-02-24T07:53:46.456Z,26.03
2023-02-24T07:54:46.463Z,26.03
2023-02-24T07:55:46.492Z,26.03
2023-02-24T07:56:46.746Z,26.03
2023-02-24T07:57:46.724Z,26.03
2023-02-24T07:58:46.385Z,26.02
2023-02-24T07:59:48.077Z,26.06
2023-02-24T08:00:46.689Z,26.02
2023-02-24T08:01:47.160Z,26.03
2023-02-24T08:02:46.396Z,26.02
2023-02-24T08:03:46.663Z,26.02
2023-02-24T08:04:46.322Z,26.03
2023-02-24T08:05:46.445Z,26.04
2023-02-24T08:06:48.078Z,26.03
2023-02-24T08:07:46.293Z,26.04
2023-02-24T08:08:46.700Z,26.02
2023-02-24T08:09:47.257Z,26.03
2023-02-24T08:10:46.278Z,25.99
2023-02-24T08:11:46.263Z,26.02
2023-02-24T08:12:46.257Z,26.02
2023-02-24T08:13:46.241Z,26.03
2023-02-24T08:14:47.313Z,26.04
2023-02-24T08:15:46.287Z,26.03
2023-02-24T08:16:47.261Z,26.03
2023-02-24T08:17:46.271Z,26.03
2023-02-24T08:18:46.202Z,26.03
2023-02-24T08:19:47.200Z,26.02
2023-02-24T08:20:46.188Z,26.06
2023-02-24T08:21:46.341Z,26.02
2023-02-24T08:22:46.306Z,26.04
2023-02-24T08:23:46.429Z,26.03
2023-02-24T08:24:46.367Z,26.03
2023-02-24T08:25:46.145Z,26.04
2023-02-24T08:26:46.177Z,26.03
2023-02-24T08:27:51.065Z,26.06
2023-02-24T08:28:46.122Z,26.03
2023-02-24T08:29:46.120Z,26.04
2023-02-24T08:30:46.710Z,26.03
2023-02-24T08:31:46.218Z,26.07
2023-02-24T08:32:46.177Z,26.06
2023-02-24T08:33:46.079Z,26.06
2023-02-24T08:34:46.067Z,26.04
2023-02-24T08:35:46.194Z,26.06
2023-02-24T08:36:46.179Z,26.07
2023-02-24T08:37:46.061Z,26.07
2023-02-24T08:38:46.697Z,26.04
2023-02-24T08:39:46.018Z,26.07
2023-02-24T08:40:46.186Z,26.07
2023-02-24T08:41:46.185Z,26.07
2023-02-24T08:42:46.179Z,26.06
2023-02-24T08:43:46.015Z,26.06
2023-02-24T08:44:45.988Z,26.07
2023-02-24T08:45:45.975Z,26.09
2023-02-24T08:46:46.249Z,26.06
2023-02-24T08:47:46.208Z,26.06
2023-02-24T08:48:45.967Z,26.09
2023-02-24T08:49:47.022Z,26.04
2023-02-24T08:50:45.932Z,26.07
2023-02-24T08:51:46.791Z,26.04
2023-02-24T08:52:45.922Z,26.06
2023-02-24T08:53:45.904Z,26.06
2023-02-24T08:54:45.929Z,26.03
2023-02-24T08:55:46.239Z,26.03
2023-02-24T08:56:46.748Z,25.99
2023-02-24T08:57:45.877Z,25.93
2023-02-24T08:58:47.405Z,25.88
2023-02-24T08:59:45.868Z,25.86
2023-02-24T09:00:45.885Z,25.86
2023-02-24T09:01:50.780Z,25.85
2023-02-24T09:02:45.861Z,25.89
2023-02-24T09:03:48.722Z,25.92
2023-02-24T09:04:45.878Z,25.96
2023-02-24T09:05:45.845Z,25.99
2023-02-24T09:06:45.813Z,26.06
2023-02-24T09:07:46.824Z,26.06
2023-02-24T09:08:52.755Z,26.10
2023-02-24T09:09:46.807Z,26.15
2023-02-24T09:10:48.717Z,26.19
2023-02-24T09:11:45.753Z,26.20
2023-02-24T09:12:46.749Z,26.26
2023-02-24T09:14:01.332Z,26.30
2023-02-24T09:14:45.731Z,26.33
2023-02-24T09:15:45.718Z,26.36
2023-02-24T09:16:45.749Z,26.41
2023-02-24T09:17:45.846Z,26.41
2023-02-24T09:18:45.694Z,26.47
2023-02-24T09:19:45.681Z,26.48
2023-02-24T09:20:45.676Z,26.52
2023-02-24T09:21:45.672Z,26.54
2023-02-24T09:22:45.705Z,26.55
2023-02-24T09:23:45.719Z,26.61
2023-02-24T09:24:45.632Z,26.64
2023-02-24T09:25:45.630Z,26.64
2023-02-24T09:26:45.646Z,26.65
2023-02-24T09:27:45.615Z,26.67
2023-02-24T09:28:45.694Z,26.71
2023-02-24T09:29:45.593Z,26.71
2023-02-24T09:30:45.638Z,26.71
2023-02-24T09:32:45.658Z,26.75
2023-02-24T09:33:46.209Z,26.81
2023-02-24T09:34:46.551Z,26.75
2023-02-24T09:35:46.206Z,26.79
2023-02-24T09:36:45.532Z,26.81
2023-02-24T09:37:45.522Z,26.81
2023-02-24T09:38:45.768Z,26.81
2023-02-24T09:39:45.500Z,26.79
2023-02-24T09:40:45.501Z,26.79
2023-02-24T09:41:46.221Z,26.79
2023-02-24T09:42:45.510Z,26.74
2023-02-24T09:43:45.474Z,26.75
2023-02-24T09:44:45.472Z,26.74
2023-02-24T09:45:46.022Z,26.71
2023-02-24T09:46:45.814Z,26.70
2023-02-24T09:47:45.424Z,26.70
2023-02-24T09:48:45.583Z,26.67
2023-02-24T09:49:45.418Z,26.68
2023-02-24T09:51:02.014Z,26.62
2023-02-24T09:51:46.297Z,26.62
2023-02-24T09:52:45.387Z,26.62
2023-02-24T09:53:45.384Z,26.59
2023-02-24T09:54:45.440Z,26.58
2023-02-24T09:55:46.354Z,26.58
2023-02-24T09:56:45.759Z,26.55
2023-02-24T09:57:45.392Z,26.56
2023-02-24T09:58:45.366Z,26.55
2023-02-24T09:59:46.308Z,26.51
2023-02-24T10:00:45.403Z,26.52
2023-02-24T10:01:45.562Z,26.52
2023-02-24T10:02:46.329Z,26.51
2023-02-24T10:03:46.720Z,26.51
2023-02-24T10:04:45.700Z,26.50
2023-02-24T10:05:47.404Z,26.50
2023-02-24T10:06:45.486Z,26.50
2023-02-24T10:07:45.320Z,26.47
2023-02-24T10:08:45.768Z,26.47
2023-02-24T10:09:45.254Z,26.47
2023-02-24T10:10:45.264Z,26.47
2023-02-24T10:11:45.226Z,26.45
2023-02-24T10:12:45.219Z,26.45
2023-02-24T10:13:45.212Z,26.45
2023-02-24T10:14:51.164Z,26.43
2023-02-24T10:15:45.233Z,26.44
2023-02-24T10:16:45.218Z,26.43
2023-02-24T10:17:45.257Z,26.43
2023-02-24T10:18:45.732Z,26.44
2023-02-24T10:19:45.731Z,26.41
2023-02-24T10:20:45.707Z,26.43
2023-02-24T10:21:45.137Z,26.41
2023-02-24T10:22:45.651Z,26.43
2023-02-24T10:23:45.239Z,26.40
2023-02-24T10:24:45.235Z,26.40
2023-02-24T10:25:45.731Z,26.40
2023-02-24T10:26:57.945Z,26.38
2023-02-24T10:27:45.102Z,26.37
2023-02-24T10:28:45.082Z,26.38
2023-02-24T10:29:45.078Z,26.38
2023-02-24T10:30:45.554Z,26.38
2023-02-24T10:31:45.441Z,26.38
2023-02-24T10:32:45.103Z,26.38
2023-02-24T10:33:45.076Z,26.38
2023-02-24T10:34:46.784Z,26.40
2023-02-24T10:35:45.319Z,26.41
2023-02-24T10:36:45.267Z,26.41
2023-02-24T10:37:45.259Z,26.45
2023-02-24T10:38:45.250Z,26.47
2023-02-24T10:39:45.245Z,26.47
2023-02-24T10:40:45.238Z,26.48
2023-02-24T10:41:45.261Z,26.47
2023-02-24T10:42:45.212Z,26.50
2023-02-24T10:43:45.412Z,26.50
2023-02-24T10:44:48.628Z,26.51
2023-02-24T10:45:45.639Z,26.51
2023-02-24T10:46:45.579Z,26.54
2023-02-24T10:47:45.163Z,26.54
2023-02-24T10:48:45.166Z,26.52
2023-02-24T10:49:45.264Z,26.54
2023-02-24T10:50:55.490Z,26.58
2023-02-24T10:51:45.632Z,26.56
2023-02-24T10:52:45.126Z,26.58
2023-02-24T10:53:46.521Z,26.59
2023-02-24T10:54:45.313Z,26.61
2023-02-24T10:55:45.155Z,26.61
2023-02-24T10:56:45.136Z,26.61
2023-02-24T10:57:58.131Z,26.62
2023-02-24T10:58:45.065Z,26.64
2023-02-24T10:59:45.322Z,26.65
2023-02-24T11:00:45.057Z,26.65
2023-02-24T11:01:45.304Z,26.65
2023-02-24T11:02:45.928Z,26.68
2023-02-24T11:03:45.026Z,26.70
2023-02-24T11:04:45.274Z,26.68
2023-02-24T11:05:45.015Z,26.68
2023-02-24T11:06:44.999Z,26.71
2023-02-24T11:07:45.749Z,26.71
2023-02-24T11:08:45.699Z,26.77
2023-02-24T11:09:45.270Z,26.75
2023-02-24T11:10:44.963Z,26.77
2023-02-24T11:11:44.962Z,26.81
2023-02-24T11:12:44.955Z,26.79
2023-02-24T11:13:44.943Z,26.82
2023-02-24T11:14:45.328Z,26.85
2023-02-24T11:15:47.853Z,26.85
2023-02-24T11:16:44.904Z,26.88
2023-02-24T11:17:45.802Z,26.88
2023-02-24T11:18:44.911Z,26.88
2023-02-24T11:19:44.875Z,26.90
2023-02-24T11:20:49.293Z,26.89
2023-02-24T11:21:45.755Z,26.89
2023-02-24T11:22:45.789Z,26.88
2023-02-24T11:23:45.268Z,26.89
2023-02-24T11:24:45.075Z,26.89
2023-02-24T11:25:45.265Z,26.89
2023-02-24T11:26:45.062Z,26.86
2023-02-24T11:27:45.043Z,26.86
2023-02-24T11:28:45.789Z,26.85
2023-02-24T11:29:45.032Z,26.81
2023-02-24T11:30:45.851Z,26.74
2023-02-24T11:31:47.864Z,26.70
2023-02-24T11:32:45.057Z,26.68
2023-02-24T11:33:45.012Z,26.70
2023-02-24T11:34:45.290Z,26.65
2023-02-24T11:35:44.970Z,26.64
2023-02-24T11:36:45.768Z,26.62
2023-02-24T11:37:44.952Z,26.59
2023-02-24T11:38:44.950Z,26.62
2023-02-24T11:39:44.937Z,26.59
2023-02-24T11:40:45.038Z,26.59
2023-02-24T11:41:44.921Z,26.58
2023-02-24T11:42:44.910Z,26.59
2023-02-24T11:43:44.903Z,26.58
2023-02-24T11:44:45.763Z,26.55
2023-02-24T11:45:45.323Z,26.56
2023-02-24T11:46:44.996Z,26.56
2023-02-24T11:47:45.773Z,26.56
2023-02-24T11:48:44.853Z,26.55
2023-02-24T11:49:44.842Z,26.54
2023-02-24T11:50:44.883Z,26.54
2023-02-24T11:51:44.833Z,26.58
2023-02-24T11:52:44.847Z,26.56
2023-02-24T11:53:44.823Z,26.56
2023-02-24T11:54:44.804Z,26.58
2023-02-24T11:55:44.803Z,26.56
2023-02-24T11:56:47.773Z,26.56
2023-02-24T11:57:44.789Z,26.58
2023-02-24T11:58:44.779Z,26.58
2023-02-24T11:59:44.761Z,26.58
2023-02-24T12:00:46.578Z,26.56
2023-02-24T12:01:44.744Z,26.59
2023-02-24T12:02:44.808Z,26.58
2023-02-24T12:03:44.744Z,26.58
2023-02-24T12:04:44.730Z,26.56
2023-02-24T12:05:44.940Z,26.56
2023-02-24T12:06:44.753Z,26.58
2023-02-24T12:07:44.718Z,26.56
2023-02-24T12:08:45.305Z,26.58
2023-02-24T12:09:44.696Z,26.55
2023-02-24T12:10:44.692Z,26.58
2023-02-24T12:11:44.686Z,26.55
2023-02-24T12:12:45.307Z,26.58
2023-02-24T12:13:44.664Z,26.58
2023-02-24T12:14:44.648Z,26.54
2023-02-24T12:15:45.318Z,26.58
2023-02-24T12:16:44.608Z,26.56
2023-02-24T12:17:44.625Z,26.56
2023-02-24T12:18:44.617Z,26.55
2023-02-24T12:19:44.869Z,26.55
2023-02-24T12:20:44.645Z,26.58
2023-02-24T12:21:46.311Z,26.56
2023-02-24T12:22:44.604Z,26.56
2023-02-24T12:23:44.574Z,26.55
2023-02-24T12:24:44.538Z,26.54
2023-02-24T12:25:44.571Z,26.52
2023-02-24T12:26:44.791Z,26.51
2023-02-24T12:27:44.505Z,26.52
2023-02-24T12:28:44.497Z,26.50
2023-02-24T12:29:44.486Z,26.51
2023-02-24T12:30:44.493Z,26.52
2023-02-24T12:31:44.734Z,26.50
2023-02-24T12:32:44.680Z,26.51
2023-02-24T12:33:44.463Z,26.48
2023-02-24T12:34:47.285Z,26.48
2023-02-24T12:35:45.286Z,26.47
2023-02-24T12:36:44.417Z,26.50
2023-02-24T12:37:45.297Z,26.48
2023-02-24T12:38:44.422Z,26.47
2023-02-24T12:39:44.398Z,26.50
2023-02-24T12:40:45.291Z,26.47
2023-02-24T12:41:44.397Z,26.47
2023-02-24T12:42:44.804Z,26.45
2023-02-24T12:43:44.352Z,26.45
2023-02-24T12:44:44.353Z,26.44
2023-02-24T12:45:44.362Z,26.45
2023-02-24T12:46:44.329Z,26.45
2023-02-24T12:47:44.341Z,26.47
2023-02-24T12:48:44.314Z,26.44
2023-02-24T12:49:44.292Z,26.45
2023-02-24T12:50:44.296Z,26.44
2023-02-24T12:51:44.278Z,26.44
2023-02-24T12:52:44.274Z,26.45
2023-02-24T12:53:44.264Z,26.45
2023-02-24T12:54:44.273Z,26.44
2023-02-24T12:55:44.239Z,26.43
2023-02-24T12:56:44.790Z,26.44
2023-02-24T12:57:44.253Z,26.43
2023-02-24T12:58:44.276Z,26.43
2023-02-24T12:59:44.228Z,26.41
2023-02-24T13:00:44.862Z,26.40
2023-02-24T13:01:44.183Z,26.40
2023-02-24T13:02:44.283Z,26.41
2023-02-24T13:03:44.168Z,26.41
2023-02-24T13:04:44.797Z,26.41
2023-02-24T13:05:44.160Z,26.40
2023-02-24T13:06:44.141Z,26.38
2023-02-24T13:07:44.130Z,26.38
2023-02-24T13:08:44.123Z,26.37
2023-02-24T13:09:44.104Z,26.38
2023-02-24T13:10:44.152Z,26.40
2023-02-24T13:11:44.095Z,26.37
2023-02-24T13:12:44.107Z,26.40
2023-02-24T13:13:44.072Z,26.36
2023-02-24T13:14:44.080Z,26.37
2023-02-24T13:15:44.199Z,26.33
2023-02-24T13:16:44.060Z,26.36
2023-02-24T13:17:44.040Z,26.36
2023-02-24T13:18:44.041Z,26.37
2023-02-24T13:19:44.243Z,26.34
2023-02-24T13:20:44.004Z,26.33
2023-02-24T13:21:43.998Z,26.34
2023-02-24T13:22:43.988Z,26.31
2023-02-24T13:23:43.977Z,26.33
2023-02-24T13:24:43.991Z,26.33
2023-02-24T13:25:43.955Z,26.33
2023-02-24T13:26:43.973Z,26.31
2023-02-24T13:27:43.951Z,26.33
2023-02-24T13:28:43.933Z,26.31
2023-02-24T13:29:43.920Z,26.30
2023-02-24T13:30:44.008Z,26.33
2023-02-24T13:31:44.472Z,26.31
2023-02-24T13:32:44.087Z,26.30
2023-02-24T13:33:43.914Z,26.33
2023-02-24T13:34:43.875Z,26.30
2023-02-24T13:35:43.867Z,26.30
2023-02-24T13:36:43.884Z,26.31
2023-02-24T13:37:43.881Z,26.30
2023-02-24T13:38:43.835Z,26.30
2023-02-24T13:39:43.831Z,26.30
2023-02-24T13:40:43.821Z,26.30
2023-02-24T13:41:43.820Z,26.29
2023-02-24T13:42:43.838Z,26.30
2023-02-24T13:43:43.809Z,26.29
2023-02-24T13:44:43.787Z,26.27